Time;durP1;ratioP1;P1;durP2;ratioP2;P2;SDS_P1;SDS_P2;PMS_P1;PMS_P2;Temp;Humidity;BMP_temperature;BMP_pressure;BME280_temperature;BME280_humidity;BME280_pressure;Samples;Min_cycle;Max_cycle;Signal;HPM_P1;HPM_P2
2021/12/30 00:02:14;;;;;;;111.25;47.85;;;;;;;-4.70;84.07;99541.00;1711068;82;21076;-64
2021/12/30 00:04:41;;;;;;;110.72;46.37;;;;;;;-4.67;84.07;99537.35;1711124;83;21028;-66
2021/12/30 00:07:09;;;;;;;100.00;46.90;;;;;;;-4.65;83.99;99533.10;1713024;83;21017;-64
2021/12/30 00:09:37;;;;;;;112.70;49.55;;;;;;;-4.64;83.90;99539.60;1714044;83;21454;-67
2021/12/30 00:12:04;;;;;;;111.95;46.05;;;;;;;-4.61;83.96;99539.70;1712313;83;21064;-65
2021/12/30 00:14:34;;;;;;;108.83;47.30;;;;;;;-4.60;83.78;99541.84;1711190;83;21128;-66
2021/12/30 00:17:03;;;;;;;97.57;45.30;;;;;;;-4.62;83.61;99538.58;1711851;82;21055;-66
2021/12/30 00:19:29;;;;;;;112.00;49.33;;;;;;;-4.66;83.30;99538.98;1712854;82;20901;-65
2021/12/30 00:21:56;;;;;;;111.37;48.78;;;;;;;-4.68;83.44;99541.09;1713286;83;21729;-64
2021/12/30 00:24:22;;;;;;;114.03;47.30;;;;;;;-4.68;83.55;99550.52;1711276;83;21135;-66
2021/12/30 00:26:51;;;;;;;112.65;49.38;;;;;;;-4.66;83.59;99552.98;1712294;82;21084;-65
2021/12/30 00:29:20;;;;;;;123.60;52.62;;;;;;;-4.64;83.71;99555.73;1710948;83;20945;-66
2021/12/30 00:31:48;;;;;;;126.92;54.03;;;;;;;-4.60;83.69;99550.75;1714352;83;21008;-64
2021/12/30 00:34:16;;;;;;;112.17;50.33;;;;;;;-4.57;83.61;99554.89;1711237;82;21154;-66
2021/12/30 00:36:42;;;;;;;116.77;49.93;;;;;;;-4.56;83.48;99558.70;1711759;83;21044;-67
2021/12/30 00:39:09;;;;;;;103.65;46.00;;;;;;;-4.57;83.37;99554.34;1713001;83;21121;-65
2021/12/30 00:41:40;;;;;;;109.97;47.48;;;;;;;-4.55;83.28;99547.39;1710506;83;21434;-67
2021/12/30 00:44:06;;;;;;;111.62;48.15;;;;;;;-4.59;83.21;99549.70;1712580;83;21087;-66
2021/12/30 00:46:32;;;;;;;109.55;47.62;;;;;;;-4.61;83.23;99545.08;1713200;83;23025;-63
2021/12/30 00:49:00;;;;;;;103.25;49.05;;;;;;;-4.60;83.22;99541.84;1712072;83;21036;-64
2021/12/30 00:51:26;;;;;;;104.12;46.68;;;;;;;-4.61;83.24;99542.91;1713464;83;21243;-64
2021/12/30 00:53:53;;;;;;;116.40;50.48;;;;;;;-4.61;83.20;99542.91;1711422;83;20941;-64
2021/12/30 00:56:21;;;;;;;122.25;51.90;;;;;;;-4.62;83.23;99537.23;1710467;83;20940;-65
2021/12/30 00:58:48;;;;;;;117.77;50.05;;;;;;;-4.61;83.38;99531.63;1712026;83;21941;-63
2021/12/30 01:01:14;;;;;;;107.15;49.83;;;;;;;-4.58;83.39;99538.42;1713079;82;20857;-66
2021/12/30 01:03:42;;;;;;;130.90;52.30;;;;;;;-4.60;83.23;99537.81;1712980;83;21046;-66
2021/12/30 01:06:10;;;;;;;106.85;50.15;;;;;;;-4.66;83.03;99532.81;1712924;83;21015;-67
2021/12/30 01:08:36;;;;;;;114.47;51.00;;;;;;;-4.68;83.17;99530.34;1710878;83;21072;-66
2021/12/30 01:11:08;;;;;;;110.30;48.80;;;;;;;-4.70;83.07;99534.27;1710227;82;20969;-63
2021/12/30 01:13:38;;;;;;;103.42;49.83;;;;;;;-4.72;83.15;99530.97;1685273;83;21116;-66
2021/12/30 01:16:03;;;;;;;112.83;49.83;;;;;;;-4.73;83.22;99536.89;1710242;83;21141;-64
2021/12/30 01:18:53;;;;;;;118.95;53.25;;;;;;;-4.73;83.31;99535.55;1713024;83;20900;-65
2021/12/30 01:21:08;;;;;;;118.67;51.80;;;;;;;-4.72;83.41;99541.73;1708618;83;21540;-66
2021/12/30 01:23:35;;;;;;;132.63;54.60;;;;;;;-4.68;83.69;99544.30;1713032;83;21035;-64
2021/12/30 01:26:04;;;;;;;117.62;51.35;;;;;;;-4.64;83.86;99537.45;1688225;83;21133;-66
2021/12/30 01:28:30;;;;;;;133.90;56.28;;;;;;;-4.59;83.79;99539.48;1711856;83;21132;-66
2021/12/30 01:30:56;;;;;;;124.62;52.35;;;;;;;-4.58;83.68;99541.11;1713054;83;20987;-66
2021/12/30 01:33:23;;;;;;;128.05;54.75;;;;;;;-4.57;83.78;99539.55;1712144;83;21012;-66
2021/12/30 01:35:49;;;;;;;115.00;51.37;;;;;;;-4.55;83.75;99541.50;1714503;83;20977;-65
2021/12/30 01:38:16;;;;;;;124.35;52.65;;;;;;;-4.55;83.52;99541.50;1710882;83;20949;-64
2021/12/30 01:40:46;;;;;;;140.70;56.70;;;;;;;-4.58;83.38;99542.46;1712312;83;21127;-66
2021/12/30 01:43:13;;;;;;;127.62;51.88;;;;;;;-4.60;83.58;99533.27;1713088;82;20951;-67
2021/12/30 01:45:40;;;;;;;123.07;51.77;;;;;;;-4.57;83.65;99532.02;1712131;83;21025;-67
2021/12/30 01:48:06;;;;;;;117.17;53.05;;;;;;;-4.55;83.72;99540.16;1712307;83;21015;-65
2021/12/30 01:50:33;;;;;;;119.82;49.35;;;;;;;-4.54;83.70;99536.41;1712166;83;21584;-65
2021/12/30 01:52:59;;;;;;;128.80;50.95;;;;;;;-4.55;83.55;99533.95;1729815;82;21123;-65
2021/12/30 01:55:26;;;;;;;122.33;49.55;;;;;;;-4.61;83.36;99535.67;1749635;81;21126;-65
2021/12/30 01:57:53;;;;;;;112.10;49.48;;;;;;;-4.62;83.51;99535.89;1747332;81;21037;-65
2021/12/30 02:00:23;;;;;;;111.17;48.38;;;;;;;-4.62;83.74;99535.89;1748619;82;20976;-65
2021/12/30 02:02:50;;;;;;;119.77;47.95;;;;;;;-4.60;83.82;99539.16;1748872;81;20952;-64
2021/12/30 02:05:17;;;;;;;110.88;47.43;;;;;;;-4.60;83.75;99547.23;1745809;81;21121;-64
2021/12/30 02:07:43;;;;;;;125.15;47.30;;;;;;;-4.59;84.00;99545.66;1745357;81;20893;-66
2021/12/30 02:10:10;;;;;;;108.65;44.90;;;;;;;-4.53;84.08;99552.88;1747665;81;20992;-66
2021/12/30 02:12:39;;;;;;;126.53;51.35;;;;;;;-4.50;84.07;99558.87;1743982;81;20939;-66
2021/12/30 02:15:09;;;;;;;122.45;50.73;;;;;;;-4.47;83.97;99557.88;1747347;81;21012;-63
2021/12/30 02:17:38;;;;;;;108.77;40.90;;;;;;;-4.45;83.81;99563.07;1746595;81;20968;-66
2021/12/30 02:20:08;;;;;;;129.40;51.08;;;;;;;-4.46;83.73;99570.31;1743945;81;21646;-65
2021/12/30 02:22:36;;;;;;;128.62;53.65;;;;;;;-4.46;83.76;99564.09;1744453;81;20971;-65
2021/12/30 02:25:04;;;;;;;131.63;51.40;;;;;;;-4.47;83.75;99568.64;1729342;81;21036;-65
2021/12/30 02:27:30;;;;;;;134.80;54.48;;;;;;;-4.47;83.75;99569.98;1748687;81;21016;-66
2021/12/30 02:29:57;;;;;;;117.90;48.45;;;;;;;-4.48;83.66;99575.59;1745126;81;23311;-66
2021/12/30 02:32:25;;;;;;;133.37;50.43;;;;;;;-4.52;83.66;99569.85;1747436;81;21041;-67
2021/12/30 02:34:52;;;;;;;125.78;50.15;;;;;;;-4.55;83.65;99564.37;1748773;81;21021;-65
2021/12/30 02:37:19;;;;;;;122.33;48.92;;;;;;;-4.56;83.78;99561.91;1747719;81;20917;-66
2021/12/30 02:39:53;;;;;;;126.30;47.05;;;;;;;-4.57;83.88;99568.34;1747910;81;21143;-66
2021/12/30 02:42:24;;;;;;;126.02;47.65;;;;;;;-4.59;83.79;99561.00;1750457;81;21131;-66
2021/12/30 02:44:50;;;;;;;120.00;46.92;;;;;;;-4.62;83.84;99577.03;1749669;81;20937;-66
2021/12/30 02:47:18;;;;;;;143.82;50.12;;;;;;;-4.61;84.10;99575.18;1746110;81;20953;-66
2021/12/30 02:49:45;;;;;;;125.75;49.15;;;;;;;-4.60;84.23;99568.23;1746227;81;21025;-65
2021/12/30 02:52:12;;;;;;;123.67;48.38;;;;;;;-4.57;84.24;99575.06;1748501;81;20977;-65
2021/12/30 02:54:41;;;;;;;114.05;48.40;;;;;;;-4.55;84.23;99571.61;1748536;81;21398;-65
2021/12/30 02:57:07;;;;;;;114.52;44.38;;;;;;;-4.55;84.17;99568.41;1748474;81;21108;-63
2021/12/30 02:59:35;;;;;;;115.03;46.50;;;;;;;-4.56;84.07;99571.31;1751538;81;21088;-66
2021/12/30 03:02:04;;;;;;;106.55;47.50;;;;;;;-4.56;83.96;99569.97;1748521;81;20977;-65
2021/12/30 03:04:31;;;;;;;117.42;49.25;;;;;;;-4.57;84.06;99576.41;1749561;81;21425;-65
2021/12/30 03:06:58;;;;;;;131.18;53.10;;;;;;;-4.55;84.13;99582.37;1749174;81;21232;-66
2021/12/30 03:09:27;;;;;;;134.43;53.90;;;;;;;-4.53;84.15;99587.02;1744323;81;21157;-65
2021/12/30 03:11:55;;;;;;;125.10;50.75;;;;;;;-4.54;84.08;99590.22;1748964;81;21001;-66
2021/12/30 03:14:25;;;;;;;130.75;54.58;;;;;;;-4.53;84.11;99595.09;1745585;81;20930;-67
2021/12/30 03:16:52;;;;;;;137.80;53.73;;;;;;;-4.52;84.13;99602.13;1745316;81;21049;-65
2021/12/30 03:19:21;;;;;;;138.90;51.68;;;;;;;-4.51;84.12;99602.42;1750209;81;21152;-66
2021/12/30 03:21:49;;;;;;;130.72;52.62;;;;;;;-4.50;84.08;99609.98;1750896;80;21032;-64
2021/12/30 03:24:18;;;;;;;129.12;51.58;;;;;;;-4.51;83.99;99614.53;1746771;81;21435;-63
2021/12/30 03:26:44;;;;;;;131.57;53.85;;;;;;;-4.51;84.05;99627.98;1748092;81;21017;-67
2021/12/30 03:29:11;;;;;;;131.37;49.08;;;;;;;-4.51;84.05;99623.95;1750529;81;21532;-67
2021/12/30 03:31:42;;;;;;;122.67;50.35;;;;;;;-4.52;84.10;99629.03;1750742;81;21222;-65
2021/12/30 03:34:10;;;;;;;130.55;50.10;;;;;;;-4.51;84.17;99627.98;1746199;81;21021;-66
2021/12/30 03:36:37;;;;;;;128.80;52.62;;;;;;;-4.52;84.10;99625.00;1749160;81;21577;-65
2021/12/30 03:39:03;;;;;;;139.62;54.00;;;;;;;-4.54;84.13;99627.87;1740807;81;20958;-64
2021/12/30 03:41:32;;;;;;;124.87;49.48;;;;;;;-4.52;84.20;99634.42;1745626;81;20988;-64
2021/12/30 03:44:01;;;;;;;131.80;54.65;;;;;;;-4.52;84.21;99635.77;1744498;81;21461;-66
2021/12/30 03:46:28;;;;;;;124.92;52.05;;;;;;;-4.52;84.18;99629.03;1744931;81;20995;-65
2021/12/30 03:48:58;;;;;;;129.42;49.90;;;;;;;-4.53;84.18;99628.20;1727542;81;21090;-66
2021/12/30 03:51:27;;;;;;;127.22;51.70;;;;;;;-4.53;84.23;99624.67;1744071;81;21031;-65
2021/12/30 03:53:57;;;;;;;119.28;49.00;;;;;;;-4.53;84.33;99634.09;1750398;81;20937;-64
2021/12/30 03:56:27;;;;;;;122.82;48.68;;;;;;;-4.53;84.30;99636.78;1746059;81;21243;-65
2021/12/30 03:58:56;;;;;;;132.43;53.78;;;;;;;-4.54;84.32;99639.98;1750030;81;21087;-66
2021/12/30 04:01:26;;;;;;;117.20;47.88;;;;;;;-4.55;84.27;99635.66;1744613;81;21107;-63
2021/12/30 04:03:52;;;;;;;123.72;47.17;;;;;;;-4.55;84.32;99644.23;1750583;81;20999;-64
2021/12/30 04:06:19;;;;;;;122.07;48.05;;;;;;;-4.57;84.30;99651.73;1749039;81;20938;-66
2021/12/30 04:08:45;;;;;;;121.50;49.10;;;;;;;-4.57;84.43;99654.42;1747987;81;21748;-67
2021/12/30 04:11:11;;;;;;;123.78;47.73;;;;;;;-4.55;84.45;99654.49;1748826;81;20857;-66
2021/12/30 04:13:40;;;;;;;110.85;46.75;;;;;;;-4.52;84.34;99651.36;1746609;81;20930;-62
2021/12/30 04:16:09;;;;;;;114.22;46.25;;;;;;;-4.52;84.28;99651.36;1750341;80;21009;-64
2021/12/30 04:18:36;;;;;;;111.92;46.13;;;;;;;-4.52;84.17;99647.87;1746267;81;21543;-64
2021/12/30 04:21:02;;;;;;;104.95;41.88;;;;;;;-4.53;84.16;99654.27;1745626;81;21159;-62
2021/12/30 04:23:29;;;;;;;110.83;44.70;;;;;;;-4.55;84.13;99661.22;1750070;81;20968;-62
2021/12/30 04:25:55;;;;;;;105.55;43.90;;;;;;;-4.58;84.01;99659.47;1739894;81;21718;-64
2021/12/30 04:28:22;;;;;;;113.37;46.15;;;;;;;-4.62;84.09;99660.96;1741264;81;21117;-64
2021/12/30 04:30:48;;;;;;;108.85;45.52;;;;;;;-4.64;84.22;99660.64;1746148;81;21052;-63
2021/12/30 04:33:14;;;;;;;119.47;47.67;;;;;;;-4.65;84.32;99666.23;1747719;81;21121;-66
2021/12/30 04:35:41;;;;;;;110.50;45.08;;;;;;;-4.68;84.28;99673.40;1747832;81;21534;-66
2021/12/30 04:38:07;;;;;;;108.52;45.35;;;;;;;-4.71;84.41;99676.52;1744721;81;20971;-64
2021/12/30 04:40:34;;;;;;;95.45;39.48;;;;;;;-4.71;84.55;99673.83;1748482;81;21578;-64
2021/12/30 04:43:00;;;;;;;100.62;42.40;;;;;;;-4.72;84.57;99674.34;1749662;81;21469;-66
2021/12/30 04:45:30;;;;;;;116.30;42.05;;;;;;;-4.74;84.67;99677.77;1729055;81;21145;-63
2021/12/30 04:47:56;;;;;;;105.55;42.40;;;;;;;-4.73;84.82;99682.12;1747267;81;21359;-65
2021/12/30 04:50:23;;;;;;;112.55;41.70;;;;;;;-4.73;84.85;99682.12;1749881;81;21113;-66
2021/12/30 04:52:49;;;;;;;96.47;41.58;;;;;;;-4.74;84.87;99687.17;1750389;81;20925;-66
2021/12/30 04:55:16;;;;;;;103.45;38.60;;;;;;;-4.75;84.97;99689.57;1750433;81;21449;-64
2021/12/30 04:57:43;;;;;;;113.88;42.55;;;;;;;-4.77;85.09;99695.16;1749544;81;21193;-66
2021/12/30 05:00:11;;;;;;;93.85;39.70;;;;;;;-4.77;85.30;99699.20;1747053;81;21030;-65
2021/12/30 05:03:07;;;;;;;106.05;40.58;;;;;;;-4.77;85.35;99696.51;1747928;81;21100;-65
2021/12/30 05:05:13;;;;;;;89.25;36.35;;;;;;;-4.75;85.49;99701.67;1745476;81;21604;-64
2021/12/30 05:07:43;;;;;;;85.47;35.78;;;;;;;-4.76;85.53;99698.15;1749421;81;21440;-66
2021/12/30 05:10:10;;;;;;;88.87;37.67;;;;;;;-4.79;85.43;99700.44;1750032;81;21422;-65
2021/12/30 05:12:37;;;;;;;91.37;38.35;;;;;;;-4.84;85.45;99702.42;1745050;81;20960;-66
2021/12/30 05:15:05;;;;;;;109.55;40.67;;;;;;;-4.82;85.73;99707.59;1750746;81;20985;-64
2021/12/30 05:17:34;;;;;;;98.55;37.40;;;;;;;-4.79;85.83;99712.02;1747486;81;20979;-67
2021/12/30 05:20:02;;;;;;;101.07;39.78;;;;;;;-4.78;85.92;99709.63;1742851;81;21020;-65
2021/12/30 05:22:30;;;;;;;98.80;38.83;;;;;;;-4.78;85.75;99710.17;1749545;81;21735;-68
2021/12/30 05:24:56;;;;;;;93.40;37.35;;;;;;;-4.83;85.67;99714.85;1746518;81;20997;-66
2021/12/30 05:27:23;;;;;;;96.45;40.20;;;;;;;-4.86;85.75;99710.42;1748947;81;21478;-66
2021/12/30 05:29:49;;;;;;;97.12;39.15;;;;;;;-4.86;85.84;99705.04;1747333;81;21005;-67
2021/12/30 05:32:16;;;;;;;97.27;37.75;;;;;;;-4.84;86.10;99705.11;1749144;81;21056;-67
2021/12/30 05:34:42;;;;;;;110.83;44.20;;;;;;;-4.79;86.17;99704.47;1747119;81;21768;-65
2021/12/30 05:37:09;;;;;;;92.85;40.30;;;;;;;-4.76;86.39;99706.22;1744560;81;20985;-66
2021/12/30 05:39:40;;;;;;;100.62;38.63;;;;;;;-4.71;86.40;99703.42;1747940;81;20985;-66
2021/12/30 05:42:05;;;;;;;102.20;42.05;;;;;;;-4.73;86.07;99713.56;1744395;81;21974;-66
2021/12/30 05:44:35;;;;;;;112.35;43.70;;;;;;;-4.76;86.08;99710.25;1743027;81;21405;-67
2021/12/30 05:47:05;;;;;;;109.27;43.60;;;;;;;-4.73;86.28;99718.42;1747961;81;21477;-67
2021/12/30 05:49:34;;;;;;;112.15;40.65;;;;;;;-4.70;86.32;99716.65;1751015;81;20992;-66
2021/12/30 05:52:00;;;;;;;129.42;47.65;;;;;;;-4.68;86.36;99725.33;1750137;81;20985;-65
2021/12/30 05:54:27;;;;;;;152.32;49.85;;;;;;;-4.69;86.16;99729.05;1731096;81;21016;-67
2021/12/30 05:56:53;;;;;;;131.90;47.88;;;;;;;-4.71;86.13;99725.77;1750003;81;21035;-67
2021/12/30 05:59:21;;;;;;;103.07;41.75;;;;;;;-4.70;86.17;99728.75;1750578;81;22717;-68
2021/12/30 06:01:47;;;;;;;109.30;40.08;;;;;;;-4.69;86.23;99735.77;1750341;81;20913;-65
2021/12/30 06:04:15;;;;;;;124.20;44.33;;;;;;;-4.73;86.09;99731.88;1751056;81;21009;-65
2021/12/30 06:06:42;;;;;;;134.20;48.13;;;;;;;-4.78;86.06;99739.75;1748976;81;21099;-67
2021/12/30 06:09:08;;;;;;;117.72;44.00;;;;;;;-4.78;86.44;99741.90;1745710;81;21023;-67
2021/12/30 06:11:34;;;;;;;110.85;43.40;;;;;;;-4.72;86.58;99745.61;1744605;81;21078;-65
2021/12/30 06:14:01;;;;;;;104.67;41.73;;;;;;;-4.68;86.66;99759.47;1747567;81;20979;-66
2021/12/30 06:16:27;;;;;;;113.32;45.45;;;;;;;-4.66;86.63;99756.85;1749037;81;20966;-64
2021/12/30 06:18:59;;;;;;;122.07;42.50;;;;;;;-4.62;86.83;99768.02;1705442;81;21450;-69
2021/12/30 06:21:29;;;;;;;125.90;48.85;;;;;;;-4.54;87.11;99769.12;1747526;81;20814;-66
2021/12/30 06:23:55;;;;;;;128.12;51.68;;;;;;;-4.47;87.12;99774.47;1745035;81;21100;-67
2021/12/30 06:26:23;;;;;;;124.53;52.08;;;;;;;-4.45;86.80;99777.78;1743422;81;21012;-66
2021/12/30 06:28:49;;;;;;;111.25;42.70;;;;;;;-4.44;86.92;99781.30;1744471;81;20945;-68
2021/12/30 06:31:18;;;;;;;114.75;41.68;;;;;;;-4.39;86.94;99780.14;1751485;81;21041;-67
2021/12/30 06:33:46;;;;;;;105.90;40.67;;;;;;;-4.37;86.88;99778.58;1750289;81;21112;-69
2021/12/30 06:36:12;;;;;;;108.12;41.33;;;;;;;-4.37;86.89;99784.80;1746036;81;21522;-66
2021/12/30 06:38:39;;;;;;;102.92;39.48;;;;;;;-4.34;86.93;99784.88;1744757;81;21488;-65
2021/12/30 06:41:07;;;;;;;106.92;40.43;;;;;;;-4.33;86.82;99790.03;1745395;81;20897;-67
2021/12/30 06:43:34;;;;;;;112.17;43.15;;;;;;;-4.33;86.71;99786.00;1748081;81;20917;-63
2021/12/30 06:46:05;;;;;;;108.10;40.90;;;;;;;-4.33;86.71;99790.58;1748577;81;21409;-66
2021/12/30 06:48:29;;;;;;;111.97;40.58;;;;;;;-4.35;86.59;99787.27;1748289;81;21164;-65
2021/12/30 06:50:59;;;;;;;109.72;41.95;;;;;;;-4.35;86.58;99779.20;1751399;81;20945;-67
2021/12/30 06:53:26;;;;;;;93.45;37.83;;;;;;;-4.36;86.71;99781.05;1749513;81;21062;-67
2021/12/30 06:55:52;;;;;;;108.90;41.63;;;;;;;-4.40;86.57;99779.31;1745815;81;20958;-67
2021/12/30 06:58:19;;;;;;;113.80;43.78;;;;;;;-4.42;86.69;99778.69;1751247;81;20948;-66
2021/12/30 07:00:48;;;;;;;136.65;49.13;;;;;;;-4.40;86.91;99777.12;1749303;81;21963;-67
2021/12/30 07:03:17;;;;;;;168.00;59.98;;;;;;;-4.36;87.04;99781.05;1749025;81;20965;-67
2021/12/30 07:05:46;;;;;;;129.80;47.65;;;;;;;-4.33;87.03;99783.85;1748043;81;21501;-66
2021/12/30 07:08:13;;;;;;;141.03;52.15;;;;;;;-4.34;86.83;99783.52;1745451;81;20977;-66
2021/12/30 07:10:41;;;;;;;137.43;52.27;;;;;;;-4.36;86.84;99790.98;1747382;81;20937;-68
2021/12/30 07:13:08;;;;;;;132.80;50.80;;;;;;;-4.38;86.81;99786.36;1742085;81;21167;-65
2021/12/30 07:15:35;;;;;;;129.75;49.25;;;;;;;-4.41;86.80;99781.70;1744704;81;21058;-67
2021/12/30 07:18:02;;;;;;;125.85;47.90;;;;;;;-4.42;86.88;99785.95;1743292;81;20984;-68
2021/12/30 07:20:30;;;;;;;130.12;47.85;;;;;;;-4.41;87.00;99787.59;1747933;81;20952;-67
2021/12/30 07:22:57;;;;;;;133.63;49.50;;;;;;;-4.43;87.05;99786.98;1745224;81;21059;-67
2021/12/30 07:25:28;;;;;;;137.28;50.92;;;;;;;-4.44;87.12;99788.86;1745157;81;21052;-66
2021/12/30 07:27:56;;;;;;;132.30;48.15;;;;;;;-4.45;87.29;99776.97;1742774;81;20917;-67
2021/12/30 07:30:24;;;;;;;118.90;44.90;;;;;;;-4.44;87.40;99786.17;1744501;81;21502;-68
2021/12/30 07:32:52;;;;;;;104.55;41.37;;;;;;;-4.44;87.36;99788.86;1753268;81;20929;-67
2021/12/30 07:35:22;;;;;;;95.00;37.83;;;;;;;-4.45;87.35;99790.42;1745675;81;20961;-68
2021/12/30 07:37:50;;;;;;;95.70;38.78;;;;;;;-4.46;87.30;99788.25;1753176;81;21142;-66
2021/12/30 07:40:16;;;;;;;91.28;36.77;;;;;;;-4.48;87.35;99780.06;1746415;81;21024;-68
2021/12/30 07:42:44;;;;;;;103.25;38.02;;;;;;;-4.50;87.37;99784.31;1750611;81;21055;-67
2021/12/30 07:45:11;;;;;;;99.62;37.30;;;;;;;-4.48;87.57;99793.01;1744517;81;20976;-65
2021/12/30 07:47:39;;;;;;;76.95;31.05;;;;;;;-4.45;87.50;99789.88;1729542;82;20933;-67
2021/12/30 07:50:06;;;;;;;63.20;26.15;;;;;;;-4.47;87.36;99785.23;1744379;81;21079;-66
2021/12/30 07:52:34;;;;;;;59.53;26.27;;;;;;;-4.49;87.26;99789.19;1748883;81;21020;-66
2021/12/30 07:55:01;;;;;;;63.23;25.92;;;;;;;-4.49;87.36;99789.19;1742904;81;20973;-66
2021/12/30 07:57:29;;;;;;;69.58;32.25;;;;;;;-4.46;87.44;99793.63;1743167;81;21042;-66
2021/12/30 07:59:57;;;;;;;66.55;29.80;;;;;;;-4.42;87.45;99800.22;1743421;81;21532;-66
2021/12/30 08:02:23;;;;;;;67.67;29.65;;;;;;;-4.39;87.23;99808.39;1750170;81;21757;-67
2021/12/30 08:04:49;;;;;;;55.63;25.05;;;;;;;-4.40;87.03;99812.11;1745453;81;21139;-66
2021/12/30 08:07:21;;;;;;;54.00;23.27;;;;;;;-4.40;86.86;99812.94;1747458;81;21529;-66
2021/12/30 08:09:48;;;;;;;49.30;23.90;;;;;;;-4.42;86.73;99813.67;1742085;81;21037;-66
2021/12/30 08:12:14;;;;;;;54.53;21.00;;;;;;;-4.42;86.68;99816.36;1745750;81;21012;-67
2021/12/30 08:14:41;;;;;;;58.68;24.02;;;;;;;-4.42;86.54;99815.02;1742678;81;21707;-66
2021/12/30 08:17:09;;;;;;;54.90;23.40;;;;;;;-4.42;86.51;99815.02;1744571;81;21016;-66
2021/12/30 08:19:35;;;;;;;54.15;23.27;;;;;;;-4.37;86.65;99812.22;1743104;81;20981;-65
2021/12/30 08:22:02;;;;;;;56.40;22.35;;;;;;;-4.34;86.56;99815.82;1749183;81;20961;-67
2021/12/30 08:24:29;;;;;;;65.60;24.77;;;;;;;-4.34;86.37;99812.62;1750567;81;21447;-67
2021/12/30 08:27:01;;;;;;;50.15;23.22;;;;;;;-4.31;86.35;99811.35;1745099;81;21123;-68
2021/12/30 08:29:31;;;;;;;44.08;20.23;;;;;;;-4.29;86.13;99810.11;1747645;81;21057;-67
2021/12/30 08:31:58;;;;;;;52.85;23.60;;;;;;;-4.26;86.10;99807.50;1749794;81;20938;-68
2021/12/30 08:34:24;;;;;;;47.67;23.07;;;;;;;-4.26;86.10;99808.84;1749166;81;21017;-69
2021/12/30 08:36:51;;;;;;;48.70;22.00;;;;;;;-4.21;85.88;99803.64;1747118;81;20970;-68
2021/12/30 08:39:18;;;;;;;47.10;21.23;;;;;;;-4.19;85.73;99804.26;1744418;81;21450;-64
2021/12/30 08:41:44;;;;;;;44.88;20.52;;;;;;;-4.17;85.56;99799.49;1745651;81;21005;-66
2021/12/30 08:44:11;;;;;;;56.25;22.90;;;;;;;-4.16;85.34;99801.13;1744743;81;21028;-68
2021/12/30 08:46:38;;;;;;;64.65;29.27;;;;;;;-4.16;85.26;99802.48;1743138;81;20993;-68
2021/12/30 08:49:06;;;;;;;56.05;26.10;;;;;;;-4.16;85.09;99804.34;1749166;81;21048;-66
2021/12/30 08:51:36;;;;;;;52.62;23.05;;;;;;;-4.15;85.03;99806.00;1753531;81;21140;-67
2021/12/30 08:54:04;;;;;;;47.62;22.35;;;;;;;-4.15;84.96;99801.97;1749488;81;20988;-68
2021/12/30 08:56:35;;;;;;;49.50;21.37;;;;;;;-4.13;84.73;99810.66;1744181;81;21004;-66
2021/12/30 08:59:02;;;;;;;49.73;20.92;;;;;;;-4.13;84.80;99801.75;1745927;81;20949;-68
2021/12/30 09:01:29;;;;;;;51.13;22.70;;;;;;;-4.11;84.84;99808.55;1745481;81;20985;-67
2021/12/30 09:03:56;;;;;;;49.23;21.70;;;;;;;-4.08;84.70;99802.77;1749011;81;21518;-66
2021/12/30 09:06:24;;;;;;;44.50;19.85;;;;;;;-4.07;84.37;99800.88;1743534;81;21051;-67
2021/12/30 09:08:51;;;;;;;57.10;23.83;;;;;;;-4.06;84.34;99810.63;1745947;81;20934;-67
2021/12/30 09:11:20;;;;;;;44.38;20.25;;;;;;;-4.07;84.38;99807.09;1747842;81;20985;-68
2021/12/30 09:13:51;;;;;;;41.70;18.80;;;;;;;-4.03;84.25;99806.95;1746332;81;21007;-65
2021/12/30 09:16:20;;;;;;;33.88;17.48;;;;;;;-4.00;84.18;99812.95;1727266;81;21549;-66
2021/12/30 09:18:50;;;;;;;;;;;;;;;-3.99;84.03;99815.42;1745823;81;20890;-69
2021/12/30 09:21:17;;;;;;;48.02;22.20;;;;;;;-3.97;83.87;99816.55;1745262;81;20425;-65
2021/12/30 09:23:44;;;;;;;45.90;21.62;;;;;;;-3.99;83.67;99814.62;1747566;81;20999;-68
2021/12/30 09:26:14;;;;;;;38.45;18.00;;;;;;;-3.98;83.62;99815.75;1744066;81;20976;-68
2021/12/30 09:28:40;;;;;;;44.27;19.90;;;;;;;-3.97;83.51;99813.35;1747284;81;21475;-67
2021/12/30 09:31:06;;;;;;;44.20;19.27;;;;;;;-3.97;83.45;99807.97;1728504;82;21628;-66
2021/12/30 09:33:33;;;;;;;49.85;20.62;;;;;;;-3.97;83.43;99801.23;1748213;81;21049;-68
2021/12/30 09:36:02;;;;;;;39.63;18.65;;;;;;;-3.92;83.35;99800.58;1737365;81;20968;-65
2021/12/30 09:38:30;;;;;;;35.40;18.00;;;;;;;-3.91;83.09;99797.66;1749624;81;20940;-65
2021/12/30 09:40:56;;;;;;;35.80;17.80;;;;;;;-3.90;83.02;99794.45;1747532;81;21209;-66
2021/12/30 09:43:25;;;;;;;35.20;17.65;;;;;;;-3.86;82.95;99796.20;1749331;81;20936;-67
2021/12/30 09:45:51;;;;;;;41.92;18.12;;;;;;;-3.88;82.67;99782.95;1750652;81;20993;-67
2021/12/30 09:48:18;;;;;;;39.92;19.55;;;;;;;-3.88;82.67;99780.77;1750072;81;20957;-67
2021/12/30 09:50:50;;;;;;;38.20;17.20;;;;;;;-3.88;82.53;99788.34;1746098;81;20889;-67
2021/12/30 09:53:22;;;;;;;37.63;18.20;;;;;;;-3.91;82.33;99782.85;1747156;81;22321;-67
2021/12/30 09:55:52;;;;;;;32.50;16.30;;;;;;;-3.92;82.46;99786.60;1749071;81;20974;-64
2021/12/30 09:58:18;;;;;;;37.93;19.12;;;;;;;-3.91;82.44;99781.50;1748417;81;21445;-66
2021/12/30 10:00:46;;;;;;;43.48;19.60;;;;;;;-3.89;82.36;99785.36;1748542;81;21146;-67
2021/12/30 10:03:12;;;;;;;33.60;18.67;;;;;;;-3.91;82.10;99780.16;1747720;81;21470;-66
2021/12/30 10:05:40;;;;;;;35.63;16.35;;;;;;;-3.93;82.10;99783.61;1746193;81;21058;-67
2021/12/30 10:08:21;;;;;;;34.58;17.12;;;;;;;-3.94;82.12;99781.95;1744236;81;21009;-67
2021/12/30 10:10:53;;;;;;;33.58;18.55;;;;;;;-3.95;82.11;99785.70;1737915;81;20979;-66
2021/12/30 10:13:28;;;;;;;31.10;17.57;;;;;;;-3.97;82.20;99774.31;1732708;82;21418;-66
2021/12/30 10:16:01;;;;;;;37.20;18.10;;;;;;;-3.92;82.28;99781.73;1745853;81;21171;-66
2021/12/30 10:18:52;;;;;;;;;;;;;;;-3.88;82.09;99784.81;1754741;81;21117;-64
2021/12/30 10:21:28;;;;;;;39.05;18.45;;;;;;;-3.89;81.96;99774.58;1734447;81;20623;-66
2021/12/30 10:23:59;;;;;;;36.65;16.93;;;;;;;-3.86;82.11;99774.14;1743820;81;21051;-67
2021/12/30 10:26:26;;;;;;;31.35;15.58;;;;;;;-3.84;82.08;99763.15;1748135;81;20968;-67
2021/12/30 10:28:56;;;;;;;33.83;16.57;;;;;;;-3.80;82.13;99763.00;1747487;81;20919;-66
2021/12/30 10:31:27;;;;;;;32.67;14.85;;;;;;;-3.79;81.95;99764.67;1747126;81;21757;-63
2021/12/30 10:34:07;;;;;;;30.62;16.42;;;;;;;-3.81;81.73;99765.41;1745394;81;21579;-67
2021/12/30 10:36:38;;;;;;;36.30;16.80;;;;;;;-3.81;81.79;99771.63;1748660;81;21053;-65
2021/12/30 10:39:28;;;;;;;33.60;16.70;;;;;;;-3.80;81.77;99767.04;1746924;81;21072;-67
2021/12/30 10:42:10;;;;;;;35.58;18.42;;;;;;;-3.82;81.59;99759.72;1742378;81;21499;-66
2021/12/30 10:44:53;;;;;;;39.78;17.17;;;;;;;-3.80;81.51;99758.45;1747174;81;21191;-67
2021/12/30 10:47:23;;;;;;;;;;;;;;;-3.79;81.26;99755.23;1754136;81;21474;-67
2021/12/30 10:50:05;;;;;;;30.82;15.45;;;;;;;-3.80;81.27;99747.67;1751756;81;20097;-66
2021/12/30 10:52:34;;;;;;;43.17;18.55;;;;;;;-3.81;81.14;99742.51;1749937;81;21016;-66
2021/12/30 10:55:10;;;;;;;32.23;15.30;;;;;;;-3.82;81.38;99743.02;1749044;81;21142;-64
2021/12/30 10:57:36;;;;;;;36.42;17.92;;;;;;;-3.80;81.34;99732.86;1749123;81;21135;-65
2021/12/30 11:00:04;;;;;;;34.13;17.45;;;;;;;-3.80;81.06;99727.98;1745641;81;21024;-66
2021/12/30 11:02:32;;;;;;;36.00;18.05;;;;;;;-3.78;81.05;99728.59;1749109;81;21002;-67
2021/12/30 11:05:02;;;;;;;37.73;18.82;;;;;;;-3.74;81.05;99720.91;1749596;80;20940;-65
2021/12/30 11:07:48;;;;;;;36.38;18.77;;;;;;;-3.72;81.01;99722.32;1748533;81;21466;-66
2021/12/30 11:10:18;;;;;;;36.65;18.87;;;;;;;-3.71;80.94;99725.33;1747993;80;21149;-68
2021/12/30 11:12:47;;;;;;;38.20;18.12;;;;;;;-3.67;80.87;99715.75;1744678;80;21179;-67
2021/12/30 11:15:26;;;;;;;37.65;17.98;;;;;;;-3.61;80.83;99710.52;1751669;80;21028;-68
2021/12/30 11:18:13;;;;;;;32.40;17.00;;;;;;;-3.58;80.75;99715.47;1747026;81;20985;-67
2021/12/30 11:20:45;;;;;;;34.78;18.02;;;;;;;-3.59;80.49;99713.83;1744257;81;20925;-67